Time;durP1;ratioP1;P1;durP2;ratioP2;P2;SDS_P1;SDS_P2;PMS_P1;PMS_P2;Temp;Humidity;BMP_temperature;BMP_pressure;BME280_temperature;BME280_humidity;BME280_pressure;Samples;Min_cycle;Max_cycle;Signal;HPM_P1;HPM_P2
2022/02/21 00:02:16;;;;;;;;;6.75;2.25;;;;;11.54;64.50;100657.84;5107347;27;45417;-62
2022/02/21 00:04:42;;;;;;;;;11.75;3.00;;;;;11.53;64.65;100663.19;5105188;27;45690;-64
2022/02/21 00:07:07;;;;;;;;;14.00;3.00;;;;;11.52;63.74;100645.66;5109110;27;45523;-62
2022/02/21 00:09:33;;;;;;;;;8.00;3.50;;;;;11.50;63.78;100658.13;5110173;27;45458;-59
2022/02/21 00:11:59;;;;;;;;;10.75;5.00;;;;;11.49;63.20;100673.09;5109308;27;45513;-62
2022/02/21 00:14:25;;;;;;;;;4.75;3.00;;;;;11.50;62.77;100692.41;5106856;27;45448;-60
2022/02/21 00:16:50;;;;;;;;;7.00;3.00;;;;;11.48;61.86;100683.75;5107437;27;45422;-65
2022/02/21 00:19:16;;;;;;;;;5.00;3.75;;;;;11.46;61.45;100682.06;5111221;27;45462;-68
2022/02/21 00:21:41;;;;;;;;;5.25;1.00;;;;;11.46;59.66;100700.53;5110312;27;45519;-64
2022/02/21 00:24:07;;;;;;;;;3.75;2.25;;;;;11.48;59.14;100712.78;5109516;27;46711;-63
2022/02/21 00:26:33;;;;;;;;;3.50;2.00;;;;;11.46;59.65;100745.38;5105430;27;45392;-63
2022/02/21 00:28:58;;;;;;;;;5.00;3.25;;;;;11.42;59.65;100740.38;5106859;27;45328;-62
2022/02/21 00:31:24;;;;;;;;;4.50;2.50;;;;;11.37;59.14;100772.28;5109387;27;45448;-63
2022/02/21 00:33:49;;;;;;;;;8.50;1.00;;;;;11.27;59.44;100770.34;5110984;27;45561;-62
2022/02/21 00:36:15;;;;;;;;;4.25;0.00;;;;;11.11;58.80;100752.81;5109613;27;45471;-62
2022/02/21 00:38:40;;;;;;;;;2.50;1.50;;;;;10.90;57.53;100751.47;5106622;27;46677;-63
2022/02/21 00:41:06;;;;;;;;;2.00;1.00;;;;;10.76;56.54;100762.00;5109637;27;45446;-65
2022/02/21 00:43:31;;;;;;;;;1.00;0.00;;;;;10.62;55.75;100771.56;5106292;27;46557;-66
2022/02/21 00:45:57;;;;;;;;;2.00;0.00;;;;;10.54;55.61;100765.06;5110678;27;45517;-63
2022/02/21 00:48:22;;;;;;;;;2.50;0.75;;;;;10.51;55.50;100773.16;5108872;27;45710;-63
2022/02/21 00:50:48;;;;;;;;;1.25;0.75;;;;;10.48;55.26;100787.34;5108548;27;45500;-63
2022/02/21 00:53:14;;;;;;;;;2.50;1.00;;;;;10.48;55.61;100803.13;5105870;27;45518;-63
2022/02/21 00:55:40;;;;;;;;;2.50;1.00;;;;;10.44;56.21;100798.16;5110760;27;45504;-64
2022/02/21 00:58:06;;;;;;;;;1.75;1.00;;;;;10.40;57.02;100804.50;5110457;27;45505;-64
2022/02/21 01:00:33;;;;;;;;;8.25;1.25;;;;;10.42;57.89;100815.81;5105447;27;45322;-62
2022/02/21 01:03:00;;;;;;;;;2.25;1.00;;;;;10.38;58.55;100851.16;5104272;27;46330;-62
2022/02/21 01:05:25;;;;;;;;;2.00;0.50;;;;;10.27;58.75;100844.72;5109345;27;45493;-60
2022/02/21 01:07:51;;;;;;;;;0.00;0.00;;;;;10.05;59.36;100865.25;5112150;27;45406;-62
2022/02/21 01:10:17;;;;;;;;;2.00;0.00;;;;;9.87;59.38;100858.34;5109430;27;45425;-62
2022/02/21 01:12:43;;;;;;;;;4.50;0.00;;;;;9.72;60.12;100839.84;5104363;27;45985;-63
2022/02/21 01:15:11;;;;;;;;;3.00;1.00;;;;;9.58;60.29;100826.56;5106573;27;45763;-63
2022/02/21 01:17:37;;;;;;;;;2.25;0.00;;;;;9.52;60.39;100838.25;5110701;27;45376;-62
2022/02/21 01:20:06;;;;;;;;;2.50;0.00;;;;;9.46;59.72;100837.72;5109822;27;45406;-63
2022/02/21 01:22:35;;;;;;;;;6.50;1.00;;;;;9.41;59.83;100838.00;5107130;27;45871;-62
2022/02/21 01:25:00;;;;;;;;;0.75;0.75;;;;;9.39;60.37;100850.34;5108160;27;45592;-62
2022/02/21 01:27:26;;;;;;;;;0.50;0.00;;;;;9.31;60.31;100844.66;5098251;27;45393;-62
2022/02/21 01:29:52;;;;;;;;;0.75;0.75;;;;;9.26;60.14;100856.34;5094247;27;45561;-62
2022/02/21 01:32:17;;;;;;;;;2.00;0.00;;;;;9.23;60.73;100855.56;5083138;27;45888;-63
2022/02/21 01:34:44;;;;;;;;;3.75;0.00;;;;;9.28;60.96;100860.59;5082304;27;45235;-62
2022/02/21 01:37:09;;;;;;;;;3.00;0.00;;;;;9.32;60.87;100885.81;5081938;27;45506;-62
2022/02/21 01:39:35;;;;;;;;;1.25;0.00;;;;;9.33;61.56;100908.53;5089997;27;45522;-62
2022/02/21 01:42:01;;;;;;;;;6.25;0.25;;;;;9.30;62.25;100927.06;5083226;27;45977;-63
2022/02/21 01:44:53;;;;;;;;;2.00;0.75;;;;;9.13;62.05;100878.00;5082076;27;45359;-62
2022/02/21 01:47:21;;;;;;;;;0.00;0.00;;;;;8.97;60.76;100878.84;5078628;28;45538;-62
2022/02/21 01:49:48;;;;;;;;;0.00;0.00;;;;;8.84;60.75;100865.47;5063867;28;45536;-62
2022/02/21 01:52:14;;;;;;;;;1.75;0.00;;;;;8.74;60.17;100870.34;5081684;28;46215;-62
2022/02/21 01:54:39;;;;;;;;;0.00;0.00;;;;;8.65;60.41;100858.50;5081639;28;45481;-62
2022/02/21 01:57:05;;;;;;;;;1.00;0.00;;;;;8.56;60.55;100868.63;5082211;27;45327;-62
2022/02/21 01:59:35;;;;;;;;;0.75;0.00;;;;;8.45;61.00;100866.50;5086241;27;45231;-61
2022/02/21 02:02:01;;;;;;;;;0.00;0.00;;;;;8.42;61.18;100871.91;5081072;28;45530;-62
2022/02/21 02:04:26;;;;;;;;;3.00;0.00;;;;;8.37;61.55;100877.41;5081577;28;45557;-62
2022/02/21 02:06:53;;;;;;;;;1.75;0.00;;;;;8.34;61.96;100856.50;5072889;27;45306;-62
2022/02/21 02:09:19;;;;;;;;;0.00;0.00;;;;;8.37;62.27;100863.41;5085814;27;45520;-62
2022/02/21 02:11:45;;;;;;;;;2.00;0.00;;;;;8.36;62.42;100864.31;5081356;28;46224;-62
2022/02/21 02:14:46;;;;;;;;;1.50;0.00;;;;;8.35;62.91;100854.75;5081337;27;45582;-62
2022/02/21 02:17:14;;;;;;;;;1.00;0.00;;;;;8.35;63.07;100857.38;5038466;28;45333;-62
2022/02/21 02:19:42;;;;;;;;;2.75;0.00;;;;;8.34;63.22;100851.25;5073534;27;45410;-63
2022/02/21 02:22:09;;;;;;;;;1.50;0.00;;;;;8.37;63.48;100852.91;5076718;27;45472;-62
2022/02/21 02:24:36;;;;;;;;;0.25;0.00;;;;;8.42;63.48;100847.44;5081130;28;45557;-61
2022/02/21 02:27:02;;;;;;;;;0.00;0.00;;;;;8.43;63.78;100851.75;5086573;27;45336;-62
2022/02/21 02:29:27;;;;;;;;;2.50;0.00;;;;;8.45;63.79;100857.78;5101540;27;45611;-61
2022/02/21 02:31:55;;;;;;;;;1.50;0.75;;;;;8.45;63.75;100857.78;5085758;27;45728;-62
2022/02/21 02:34:21;;;;;;;;;1.50;0.75;;;;;8.48;64.08;100857.66;5081304;28;45355;-62
2022/02/21 02:36:48;;;;;;;;;0.50;0.00;;;;;8.49;63.72;100846.22;5081086;28;46487;-62
2022/02/21 02:39:15;;;;;;;;;4.25;0.50;;;;;8.47;63.79;100846.28;5086098;27;45245;-62
2022/02/21 02:41:44;;;;;;;;;2.50;1.00;;;;;8.48;64.07;100855.03;5084763;27;45942;-62
2022/02/21 02:44:10;;;;;;;;;3.00;1.50;;;;;8.48;64.16;100852.41;5081120;28;45477;-62
2022/02/21 02:46:36;;;;;;;;;4.50;1.00;;;;;8.48;64.02;100853.25;5080573;28;45450;-62
2022/02/21 02:49:02;;;;;;;;;5.00;2.00;;;;;8.48;63.93;100848.00;5081367;28;45240;-62
2022/02/21 02:51:27;;;;;;;;;1.75;1.00;;;;;8.48;63.85;100855.03;5080999;27;45221;-62
2022/02/21 02:53:53;;;;;;;;;6.00;1.75;;;;;8.50;63.65;100855.78;5081244;28;45382;-62
2022/02/21 02:56:19;;;;;;;;;7.25;2.00;;;;;8.49;64.01;100854.94;5081492;27;45254;-62
2022/02/21 02:58:44;;;;;;;;;3.00;1.50;;;;;8.50;63.61;100848.75;5084385;27;45474;-62
2022/02/21 03:01:10;;;;;;;;;7.00;1.50;;;;;8.51;63.58;100847.84;5080181;28;46056;-62
2022/02/21 03:03:35;;;;;;;;;3.25;1.50;;;;;8.56;63.35;100852.88;5081043;28;45229;-62
2022/02/21 03:06:01;;;;;;;;;4.75;1.00;;;;;8.59;63.40;100855.34;5081039;28;45345;-62
2022/02/21 03:08:26;;;;;;;;;7.25;1.75;;;;;8.62;62.95;100847.31;5081008;28;45496;-62
2022/02/21 03:10:51;;;;;;;;;8.25;2.50;;;;;8.62;62.70;100858.69;5080893;28;45801;-62
2022/02/21 03:13:17;;;;;;;;;8.50;3.00;;;;;8.62;62.24;100836.81;5080760;27;45269;-62
2022/02/21 03:15:43;;;;;;;;;6.75;2.00;;;;;8.63;62.73;100834.13;5080548;28;45344;-62
2022/02/21 03:18:09;;;;;;;;;6.00;2.50;;;;;8.65;62.00;100834.88;5081311;28;45355;-62
2022/02/21 03:20:35;;;;;;;;;6.75;0.00;;;;;8.64;61.77;100843.69;5080381;27;45347;-62
2022/02/21 03:23:01;;;;;;;;;6.00;1.00;;;;;8.62;61.22;100834.19;5080767;27;45338;-62
2022/02/21 03:25:26;;;;;;;;;6.50;1.50;;;;;8.64;61.00;100845.47;5080459;28;45344;-62
2022/02/21 03:27:52;;;;;;;;;4.75;3.00;;;;;8.64;60.89;100843.69;5094660;27;45278;-64
2022/02/21 03:30:17;;;;;;;;;3.50;1.00;;;;;8.65;61.02;100837.50;5085085;27;45992;-64
2022/02/21 03:32:43;;;;;;;;;2.50;2.50;;;;;8.69;60.68;100838.22;5061356;28;45469;-64
2022/02/21 03:35:09;;;;;;;;;3.50;2.00;;;;;8.71;60.48;100854.75;5080597;28;45491;-64
2022/02/21 03:37:35;;;;;;;;;2.50;0.00;;;;;8.73;60.09;100844.16;5084098;28;45628;-63
2022/02/21 03:40:05;;;;;;;;;2.50;1.00;;;;;8.73;60.23;100838.91;5093080;27;45456;-64
2022/02/21 03:42:32;;;;;;;;;2.00;1.00;;;;;8.73;60.11;100847.63;5084160;27;45221;-65
2022/02/21 03:44:58;;;;;;;;;3.00;2.00;;;;;8.73;59.64;100838.91;5083868;27;45393;-64
2022/02/21 03:47:24;;;;;;;;;6.00;2.00;;;;;8.72;59.69;100835.44;5083948;27;45631;-64
2022/02/21 03:49:49;;;;;;;;;4.00;1.75;;;;;8.75;59.62;100842.28;5083480;27;45369;-64
2022/02/21 03:52:15;;;;;;;;;6.25;2.00;;;;;8.76;59.50;100836.97;5083955;27;45300;-64
2022/02/21 03:54:40;;;;;;;;;2.00;1.00;;;;;8.75;60.08;100837.88;5083940;28;45435;-64
2022/02/21 03:57:06;;;;;;;;;13.00;3.00;;;;;8.81;59.75;100853.34;5084522;27;45378;-64
2022/02/21 03:59:32;;;;;;;;;6.00;1.50;;;;;8.83;59.98;100864.63;5087363;27;45362;-64
2022/02/21 04:01:57;;;;;;;;;6.25;2.00;;;;;8.88;59.81;100878.38;5083165;28;45412;-64
2022/02/21 04:04:22;;;;;;;;;9.00;2.50;;;;;8.89;60.40;100864.31;5083499;27;45341;-64
2022/02/21 04:06:48;;;;;;;;;4.00;1.75;;;;;8.86;61.08;100874.16;5083853;27;45361;-64
2022/02/21 04:09:13;;;;;;;;;5.25;2.00;;;;;8.82;61.07;100876.06;5083249;27;46131;-64
2022/02/21 04:11:39;;;;;;;;;2.75;2.00;;;;;8.79;61.39;100872.75;5083699;28;45354;-64
2022/02/21 04:14:05;;;;;;;;;1.25;1.25;;;;;8.77;61.76;100864.06;5083392;27;45458;-63
2022/02/21 04:16:34;;;;;;;;;7.75;2.75;;;;;8.78;61.87;100857.91;5083238;28;45388;-64
2022/02/21 04:19:02;;;;;;;;;6.50;1.00;;;;;8.78;61.91;100877.16;5082746;27;45363;-64
2022/02/21 04:21:29;;;;;;;;;5.50;2.00;;;;;8.79;61.72;100889.34;5082836;27;45803;-64
2022/02/21 04:23:54;;;;;;;;;7.75;2.00;;;;;8.79;62.03;100889.34;5082875;27;45409;-63
2022/02/21 04:26:20;;;;;;;;;3.50;0.75;;;;;8.80;61.63;100892.81;5083902;27;45420;-64
2022/02/21 04:28:45;;;;;;;;;3.25;2.00;;;;;8.72;62.13;100884.47;5102920;27;45466;-64
2022/02/21 04:31:13;;;;;;;;;3.75;1.00;;;;;8.71;62.73;100886.25;5093991;27;45443;-64
2022/02/21 04:33:39;;;;;;;;;7.00;1.00;;;;;8.72;62.59;100876.59;5082678;27;45473;-64
2022/02/21 04:36:05;;;;;;;;;10.25;1.75;;;;;8.66;62.52;100868.09;5083470;28;45273;-64
2022/02/21 04:38:31;;;;;;;;;3.50;1.00;;;;;8.61;62.30;100875.34;5082864;27;45413;-64
2022/02/21 04:40:56;;;;;;;;;3.25;1.00;;;;;8.59;62.51;100858.81;5092881;27;45246;-64
2022/02/21 04:43:22;;;;;;;;;5.25;0.50;;;;;8.59;62.51;100855.34;5083109;27;45357;-66
2022/02/21 04:45:54;;;;;;;;;0.00;0.00;;;;;8.61;62.38;100856.97;5083166;27;45324;-64
2022/02/21 04:48:21;;;;;;;;;3.00;0.75;;;;;8.64;62.63;100856.81;5082676;27;45278;-64
2022/02/21 04:50:46;;;;;;;;;1.00;0.00;;;;;8.63;62.37;100862.16;5083096;28;45292;-64
2022/02/21 04:53:12;;;;;;;;;1.00;0.50;;;;;8.65;62.05;100860.28;5082821;27;45376;-64
2022/02/21 04:55:38;;;;;;;;;9.75;1.75;;;;;8.65;62.13;100863.75;5083002;27;45276;-64
2022/02/21 04:58:03;;;;;;;;;3.00;1.00;;;;;8.71;62.42;100848.63;5087863;27;46163;-64
2022/02/21 05:00:29;;;;;;;;;3.00;1.25;;;;;8.71;62.09;100848.63;5082567;27;45329;-64
2022/02/21 05:02:54;;;;;;;;;2.50;1.25;;;;;8.73;62.06;100860.75;5082608;27;45330;-64
2022/02/21 05:05:20;;;;;;;;;4.00;1.00;;;;;8.75;62.52;100858.06;5082723;28;45320;-64
2022/02/21 05:07:46;;;;;;;;;6.25;2.50;;;;;8.75;61.92;100865.94;5082511;28;45243;-63
2022/02/21 05:10:11;;;;;;;;;2.50;0.50;;;;;8.75;61.85;100868.56;5082612;28;45400;-64
2022/02/21 05:12:37;;;;;;;;;3.50;0.00;;;;;8.79;62.33;100863.09;5082710;27;45238;-64
2022/02/21 05:15:04;;;;;;;;;2.50;1.75;;;;;8.80;61.89;100863.94;5082503;28;45267;-64
2022/02/21 05:17:30;;;;;;;;;4.25;1.00;;;;;8.78;61.54;100871.06;5082416;28;46151;-64
2022/02/21 05:19:55;;;;;;;;;4.75;1.75;;;;;8.76;62.02;100867.63;5082474;27;45215;-64
2022/02/21 05:22:21;;;;;;;;;4.25;1.00;;;;;8.74;61.80;100866.84;5081582;28;45529;-64
2022/02/21 05:24:47;;;;;;;;;3.25;1.00;;;;;8.75;62.18;100863.31;5082166;28;45313;-64
2022/02/21 05:27:13;;;;;;;;;2.75;1.00;;;;;8.74;61.68;100858.97;5090081;27;46063;-63
2022/02/21 05:29:38;;;;;;;;;5.00;1.00;;;;;8.75;61.88;100860.69;5102736;27;45361;-63
2022/02/21 05:32:04;;;;;;;;;1.00;1.00;;;;;8.73;61.95;100859.91;5102342;27;45657;-63
2022/02/21 05:34:30;;;;;;;;;1.00;1.00;;;;;8.74;61.85;100861.59;5102844;27;45369;-63
2022/02/21 05:36:55;;;;;;;;;3.25;0.25;;;;;8.70;61.57;100855.66;5102429;27;46179;-63
2022/02/21 05:39:21;;;;;;;;;3.25;1.00;;;;;8.73;61.87;100862.53;5084291;27;45351;-63
2022/02/21 05:41:46;;;;;;;;;0.00;0.00;;;;;8.74;62.02;100872.13;5085502;27;45188;-63
2022/02/21 05:44:12;;;;;;;;;2.00;1.75;;;;;8.68;61.59;100860.13;5082302;27;45250;-63
2022/02/21 05:46:38;;;;;;;;;7.00;0.00;;;;;8.62;61.80;100848.16;5081372;28;45678;-64
2022/02/21 05:49:04;;;;;;;;;5.75;0.00;;;;;8.53;61.72;100840.75;5081848;28;45529;-63
2022/02/21 05:51:30;;;;;;;;;3.00;1.00;;;;;8.46;61.94;100846.38;5082108;27;45174;-63
2022/02/21 05:53:55;;;;;;;;;2.75;1.00;;;;;8.37;62.19;100850.28;5082158;28;45257;-64
2022/02/21 05:56:21;;;;;;;;;2.50;1.25;;;;;8.33;62.54;100846.06;5081710;28;46063;-63
2022/02/21 05:58:46;;;;;;;;;2.75;0.00;;;;;8.31;62.54;100855.81;5086218;27;45338;-64
2022/02/21 06:01:12;;;;;;;;;6.50;1.00;;;;;8.27;62.46;100851.63;5081155;28;45256;-63
2022/02/21 06:03:37;;;;;;;;;1.00;1.00;;;;;8.24;62.51;100880.63;5082100;27;45329;-63
2022/02/21 06:06:03;;;;;;;;;0.00;0.00;;;;;8.22;62.70;100887.75;5081531;28;46193;-64
2022/02/21 06:08:29;;;;;;;;;1.50;0.00;;;;;8.19;62.57;100888.72;5081865;27;45311;-63
2022/02/21 06:10:56;;;;;;;;;0.25;0.25;;;;;8.17;62.92;100887.94;5081787;28;45316;-64
2022/02/21 06:13:21;;;;;;;;;3.00;0.00;;;;;8.17;62.82;100908.94;5081825;28;45320;-63
2022/02/21 06:15:47;;;;;;;;;0.00;0.00;;;;;8.17;62.50;100897.59;5090845;27;46017;-63
2022/02/21 06:18:12;;;;;;;;;1.00;0.25;;;;;8.15;62.92;100904.69;5081718;28;45291;-63
2022/02/21 06:20:38;;;;;;;;;2.50;0.00;;;;;8.13;63.39;100905.59;5079913;28;45260;-63
2022/02/21 06:23:03;;;;;;;;;1.50;0.25;;;;;8.12;62.91;100895.16;5081719;27;45211;-63
2022/02/21 06:25:29;;;;;;;;;5.75;0.00;;;;;8.14;63.17;100903.84;5081097;27;46030;-63
2022/02/21 06:27:54;;;;;;;;;0.75;0.75;;;;;8.16;62.99;100894.13;5095802;27;45316;-63
2022/02/21 06:30:20;;;;;;;;;3.50;0.00;;;;;8.16;62.58;100909.00;5102859;27;45232;-61
2022/02/21 06:32:45;;;;;;;;;3.00;0.00;;;;;8.13;63.11;100895.09;5102918;27;45619;-62
2022/02/21 06:35:11;;;;;;;;;0.00;0.00;;;;;8.12;62.61;100901.25;5080609;28;45598;-61
2022/02/21 06:37:45;;;;;;;;;2.00;0.00;;;;;8.14;62.89;100909.09;5081143;28;45423;-60
2022/02/21 06:40:11;;;;;;;;;1.00;0.25;;;;;8.11;63.25;100910.06;5090039;27;45342;-60
2022/02/21 06:42:38;;;;;;;;;0.00;0.00;;;;;8.09;63.23;100924.19;5085705;27;45342;-60
2022/02/21 06:45:03;;;;;;;;;0.00;0.00;;;;;8.09;63.14;100925.03;5080317;27;45425;-60
2022/02/21 06:47:29;;;;;;;;;0.25;0.00;;;;;8.07;62.65;100912.91;5073137;27;45313;-60
2022/02/21 06:49:54;;;;;;;;;2.00;0.00;;;;;8.06;63.08;100916.47;5082993;27;45818;-60
2022/02/21 06:52:20;;;;;;;;;3.00;1.00;;;;;8.05;63.29;100901.63;5090679;27;45515;-60
2022/02/21 06:54:52;;;;;;;;;2.00;0.25;;;;;8.03;63.22;100913.97;5080649;27;46407;-60
2022/02/21 06:57:18;;;;;;;;;0.25;0.00;;;;;8.02;63.18;100931.47;5082813;27;45414;-59
2022/02/21 06:59:44;;;;;;;;;0.00;0.00;;;;;7.99;63.22;100931.63;5082262;27;45685;-61
2022/02/21 07:02:09;;;;;;;;;0.00;0.00;;;;;7.98;63.38;100939.53;5080327;28;45619;-61
2022/02/21 07:04:35;;;;;;;;;0.25;0.00;;;;;7.97;63.19;100933.44;5080475;28;45281;-61
2022/02/21 07:07:00;;;;;;;;;2.75;0.00;;;;;7.98;63.22;100964.03;5080766;28;45338;-61
2022/02/21 07:09:26;;;;;;;;;0.00;0.00;;;;;8.00;63.02;100945.59;5080891;28;45375;-61
2022/02/21 07:11:51;;;;;;;;;1.75;0.00;;;;;7.96;63.23;100950.09;5083541;27;45393;-61
2022/02/21 07:14:17;;;;;;;;;2.75;0.00;;;;;7.97;63.08;100953.56;5084156;27;45244;-61
2022/02/21 07:16:42;;;;;;;;;3.75;0.00;;;;;7.96;63.30;100950.09;5083492;27;45414;-62
2022/02/21 07:19:07;;;;;;;;;3.00;1.00;;;;;7.94;63.50;100943.25;5083937;27;45303;-61
2022/02/21 07:21:33;;;;;;;;;0.00;0.00;;;;;7.92;63.35;100956.44;5084665;27;45206;-61
2022/02/21 07:23:58;;;;;;;;;1.50;0.50;;;;;7.92;63.52;100969.53;5083906;27;45359;-61
2022/02/21 07:26:24;;;;;;;;;3.00;0.50;;;;;7.94;63.42;100961.59;5085698;27;45238;-61
2022/02/21 07:28:49;;;;;;;;;3.00;1.00;;;;;8.01;63.13;100963.03;5104540;27;45282;-61
2022/02/21 07:31:16;;;;;;;;;1.00;1.00;;;;;8.06;63.24;100956.66;5094279;27;45485;-61
2022/02/21 07:33:41;;;;;;;;;7.00;1.25;;;;;8.19;63.32;100962.19;5083972;28;45434;-60
2022/02/21 07:36:07;;;;;;;;;3.75;1.00;;;;;8.24;62.63;100965.47;5075837;27;45468;-61
2022/02/21 07:38:32;;;;;;;;;4.00;1.00;;;;;8.28;62.90;100964.38;5087859;27;45310;-61
2022/02/21 07:40:58;;;;;;;;;2.75;1.25;;;;;8.32;62.56;100960.72;5094064;27;45316;-61
2022/02/21 07:43:23;;;;;;;;;1.25;0.00;;;;;8.29;62.40;100942.47;5083509;28;46490;-61
2022/02/21 07:45:49;;;;;;;;;1.25;0.00;;;;;8.26;62.52;100934.75;5083576;28;45343;-61
2022/02/21 07:48:14;;;;;;;;;5.00;0.75;;;;;8.25;62.55;100935.66;5083801;28;45252;-60
2022/02/21 07:50:40;;;;;;;;;4.50;1.00;;;;;8.31;62.48;100952.91;5083857;27;45510;-61
2022/02/21 07:53:07;;;;;;;;;2.00;0.25;;;;;8.34;62.72;100950.97;5083404;28;45376;-64
2022/02/21 07:55:33;;;;;;;;;3.00;0.25;;;;;8.36;62.45;100954.41;5083935;28;45271;-61
2022/02/21 07:57:58;;;;;;;;;5.50;2.25;;;;;8.41;62.12;100955.97;5089799;27;45153;-61
2022/02/21 08:00:24;;;;;;;;;4.50;1.25;;;;;8.49;62.63;100959.94;5083248;27;45588;-61
2022/02/21 08:02:50;;;;;;;;;2.50;1.00;;;;;8.59;62.39;100955.97;5082684;27;45198;-62
2022/02/21 08:05:16;;;;;;;;;5.25;2.00;;;;;8.67;62.08;100951.19;5083216;27;45281;-61
2022/02/21 08:07:42;;;;;;;;;4.00;1.00;;;;;8.74;62.21;100962.25;5082791;27;45556;-61
2022/02/21 08:10:08;;;;;;;;;0.00;0.00;;;;;8.76;62.26;100952.53;5083019;27;45263;-60
2022/02/21 08:12:34;;;;;;;;;5.25;1.50;;;;;8.73;62.19;100952.69;5083006;27;45581;-61
2022/02/21 08:15:00;;;;;;;;;5.75;1.50;;;;;8.68;62.43;100957.28;5082892;27;45319;-61
2022/02/21 08:17:26;;;;;;;;;3.25;0.25;;;;;8.65;62.59;100949.56;5082966;27;45296;-61
2022/02/21 08:19:55;;;;;;;;;4.00;1.00;;;;;8.67;63.02;100947.72;5083905;28;45228;-60
2022/02/21 08:22:20;;;;;;;;;6.75;0.00;;;;;8.73;62.50;100955.31;5082376;28;45473;-60
2022/02/21 08:24:46;;;;;;;;;2.00;1.00;;;;;8.80;62.76;100959.34;5083269;27;45284;-61
2022/02/21 08:27:11;;;;;;;;;5.00;1.00;;;;;8.89;62.37;100956.25;5091516;27;45493;-60
2022/02/21 08:29:37;;;;;;;;;4.00;1.00;;;;;8.95;62.46;100957.75;5103909;27;45350;-60
2022/02/21 08:32:03;;;;;;;;;3.00;1.00;;;;;9.00;62.28;100954.88;5086632;27;45325;-61
2022/02/21 08:34:30;;;;;;;;;3.25;0.75;;;;;9.05;62.28;100951.09;5083212;28;45280;-61
2022/02/21 08:36:56;;;;;;;;;2.75;1.00;;;;;9.15;61.99;100959.38;5083169;28;45371;-61
2022/02/21 08:39:21;;;;;;;;;8.00;1.00;;;;;9.16;61.84;100956.69;5089198;27;45248;-61
2022/02/21 08:41:47;;;;;;;;;1.50;1.00;;;;;9.19;61.80;100959.16;5068209;28;46649;-60
2022/02/21 08:44:12;;;;;;;;;4.25;1.00;;;;;9.25;61.91;100965.91;5082837;28;45236;-61
2022/02/21 08:46:38;;;;;;;;;9.00;3.00;;;;;9.29;61.59;100969.22;5082496;27;45463;-61
2022/02/21 08:49:04;;;;;;;;;5.75;2.00;;;;;9.35;61.39;100972.38;5083204;28;45194;-60
2022/02/21 08:51:30;;;;;;;;;7.00;2.00;;;;;9.36;61.29;100976.72;5082728;27;45349;-61
2022/02/21 08:53:55;;;;;;;;;6.25;2.00;;;;;9.37;61.43;100978.41;5082744;28;45326;-61
2022/02/21 08:56:21;;;;;;;;;13.50;2.50;;;;;9.36;61.20;100973.25;5082788;27;45378;-60
2022/02/21 08:58:46;;;;;;;;;2.25;1.00;;;;;9.35;61.55;100976.78;5088537;27;45264;-60
2022/02/21 09:01:12;;;;;;;;;8.00;2.00;;;;;9.34;61.66;100980.34;5081937;28;46164;-60
2022/02/21 09:03:37;;;;;;;;;2.00;1.00;;;;;9.34;61.58;100985.63;5082927;28;45354;-60
2022/02/21 09:06:06;;;;;;;;;4.25;1.00;;;;;9.33;61.32;100978.66;5082716;28;45308;-60
2022/02/21 09:08:32;;;;;;;;;5.75;1.75;;;;;9.37;61.61;100988.94;5082859;28;45478;-60
2022/02/21 09:10:58;;;;;;;;;1.50;0.75;;;;;9.42;61.40;100975.56;5082517;27;46119;-61
2022/02/21 09:13:25;;;;;;;;;7.00;1.00;;;;;9.50;61.15;100978.66;5082538;27;45224;-60
2022/02/21 09:15:51;;;;;;;;;7.25;2.50;;;;;9.56;60.78;100973.09;5082136;28;45249;-60
2022/02/21 09:18:16;;;;;;;;;4.00;1.00;;;;;9.58;60.24;100976.47;5082601;27;45461;-61
2022/02/21 09:20:42;;;;;;;;;7.25;1.00;;;;;9.64;60.94;100981.44;5082228;28;45428;-61
2022/02/21 09:23:07;;;;;;;;;6.25;2.00;;;;;9.71;60.52;100955.63;5082682;28;45348;-60
2022/02/21 09:25:33;;;;;;;;;2.50;0.75;;;;;9.77;60.24;100971.09;5082479;27;45450;-61
2022/02/21 09:27:58;;;;;;;;;4.75;1.00;;;;;9.84;60.01;100961.13;5097431;27;45267;-60
2022/02/21 09:30:24;;;;;;;;;7.75;1.25;;;;;9.87;59.37;100956.53;5099130;27;45484;-61
2022/02/21 09:32:50;;;;;;;;;9.00;2.75;;;;;9.93;60.02;100944.84;5081383;27;45469;-60
2022/02/21 09:35:16;;;;;;;;;4.75;1.25;;;;;10.03;59.32;100948.66;5081819;27;45323;-61
2022/02/21 09:37:41;;;;;;;;;5.25;2.00;;;;;10.05;59.88;100949.47;5082213;28;45449;-60
2022/02/21 09:40:11;;;;;;;;;3.75;2.25;;;;;10.22;59.22;100956.44;5091248;27;45304;-61
2022/02/21 09:42:38;;;;;;;;;5.00;2.75;;;;;10.23;58.70;100945.84;5082055;28;45378;-60
2022/02/21 09:45:07;;;;;;;;;4.25;1.25;;;;;10.23;58.44;100958.19;5081838;27;45260;-61
2022/02/21 09:47:33;;;;;;;;;3.00;1.75;;;;;10.27;58.87;100955.31;5082257;28;45497;-61
2022/02/21 09:49:59;;;;;;;;;6.00;0.50;;;;;10.36;58.41;100950.47;5081774;28;46193;-61
2022/02/21 09:52:26;;;;;;;;;7.75;3.00;;;;;10.41;58.43;100966.84;5082136;27;45783;-61
2022/02/21 09:54:51;;;;;;;;;3.75;1.00;;;;;10.54;58.56;100975.78;5081993;27;45302;-61
2022/02/21 09:57:17;;;;;;;;;2.00;1.25;;;;;10.69;58.44;100977.56;5084062;27;45447;-60
2022/02/21 09:59:43;;;;;;;;;3.75;1.00;;;;;10.81;58.22;100971.59;5083353;27;45518;-61
2022/02/21 10:02:18;;;;;;;;;6.75;2.00;;;;;10.87;57.66;100979.16;5081392;27;45330;-61
2022/02/21 10:04:43;;;;;;;;;6.75;3.00;;;;;10.95;57.41;100967.34;5081599;27;45312;-61
2022/02/21 10:07:09;;;;;;;;;6.75;2.00;;;;;10.99;57.32;100982.91;5081940;28;45382;-61
2022/02/21 10:09:38;;;;;;;;;5.00;1.00;;;;;11.01;56.55;100994.19;5081446;27;45652;-61
2022/02/21 10:12:06;;;;;;;;;3.25;1.25;;;;;10.96;55.96;100992.75;5081921;28;45312;-61
2022/02/21 10:14:32;;;;;;;;;5.75;1.50;;;;;10.85;55.49;100996.00;5081534;28;45353;-61
2022/02/21 10:17:02;;;;;;;;;3.00;1.00;;;;;10.81;55.87;100986.56;5081506;27;45545;-60
2022/02/21 10:19:42;;;;;;;;;6.50;1.50;;;;;10.78;56.08;100989.38;5081337;28;45232;-61
2022/02/21 10:22:10;;;;;;;;;2.75;1.50;;;;;10.82;55.92;100981.22;5081205;28;45407;-61
2022/02/21 10:24:39;;;;;;;;;6.50;2.00;;;;;10.92;55.68;100991.25;5081306;28;45269;-61
2022/02/21 10:27:08;;;;;;;;;4.25;1.00;;;;;10.94;55.21;100994.63;5088719;27;45308;-61
2022/02/21 10:29:45;;;;;;;;;7.00;1.50;;;;;10.99;55.63;100993.44;5101345;27;45473;-61
2022/02/21 10:32:10;;;;;;;;;3.50;1.00;;;;;11.11;55.09;100998.00;5083387;27;45277;-61
2022/02/21 10:34:37;;;;;;;;;4.75;2.00;;;;;11.24;55.07;100997.31;5081560;27;45308;-61
2022/02/21 10:37:07;;;;;;;;;7.00;2.00;;;;;11.17;55.10;101012.63;5081298;27;45636;-61
2022/02/21 10:39:33;;;;;;;;;3.50;1.00;;;;;11.18;55.19;100990.59;5088453;27;46173;-61
2022/02/21 10:41:59;;;;;;;;;6.00;1.75;;;;;11.23;54.75;101004.38;5083097;27;45318;-61
2022/02/21 10:44:26;;;;;;;;;5.00;1.50;;;;;11.21;54.82;100995.66;5081120;28;45595;-61
2022/02/21 10:47:27;;;;;;;;;3.00;1.50;;;;;11.26;54.87;101001.53;5080735;28;45165;-61
2022/02/21 10:50:01;;;;;;;;;8.75;2.50;;;;;11.27;54.10;101005.03;5078827;28;45402;-61
2022/02/21 10:52:30;;;;;;;;;1.00;1.00;;;;;11.32;54.59;101005.63;5081387;27;45465;-61
2022/02/21 10:54:57;;;;;;;;;2.25;2.00;;;;;11.34;54.43;101015.13;5080839;28;45441;-61
2022/02/21 10:57:27;;;;;;;;;6.00;2.50;;;;;11.42;54.13;101004.13;5084094;27;45581;-61
2022/02/21 10:59:54;;;;;;;;;8.00;3.00;;;;;11.54;53.97;101002.59;5081625;27;46492;-60
2022/02/21 11:02:21;;;;;;;;;5.75;2.50;;;;;11.68;53.85;100990.25;5080754;28;45370;-61
2022/02/21 11:04:47;;;;;;;;;7.25;1.00;;;;;11.80;53.69;100998.38;5081048;28;45450;-61
2022/02/21 11:07:14;;;;;;;;;3.75;1.50;;;;;11.84;52.96;100997.28;5081099;28;45610;-61
2022/02/21 11:09:41;;;;;;;;;6.00;1.00;;;;;11.83;53.01;100995.56;5080685;28;45505;-61
2022/02/21 11:12:08;;;;;;;;;6.00;3.00;;;;;11.79;53.18;101004.59;5080861;28;45453;-61
2022/02/21 11:14:35;;;;;;;;;4.00;2.00;;;;;11.81;53.14;101006.22;5080519;28;45483;-61
2022/02/21 11:17:03;;;;;;;;;3.00;2.00;;;;;11.81;53.02;101013.31;5080967;27;45307;-61
2022/02/21 11:19:29;;;;;;;;;9.00;2.00;;;;;11.76;53.04;101000.34;5080429;27;45680;-61
2022/02/21 11:21:56;;;;;;;;;4.25;2.00;;;;;11.70;52.79;101006.84;5080684;28;45331;-61
2022/02/21 11:24:34;;;;;;;;;6.25;3.00;;;;;11.68;53.21;101015.78;5082218;27;45327;-63
2022/02/21 11:27:17;;;;;;;;;7.00;2.75;;;;;11.68;53.60;101021.06;5092870;27;45351;-63
2022/02/21 11:30:02;;;;;;;;;7.75;3.50;;;;;11.58;53.36;101033.94;5100825;27;46380;-61